Time;durP1;ratioP1;P1;durP2;ratioP2;P2;SDS_P1;SDS_P2;PMS_P1;PMS_P2;Temp;Humidity;BMP_temperature;BMP_pressure;BME280_temperature;BME280_humidity;BME280_pressure;Samples;Min_cycle;Max_cycle;Signal;HPM_P1;HPM_P2
2022/05/29 00:00:51;;;;;;;2.25;1.27;;;;;;;9.38;87.42;98298.06;5066315;28;20048;-72
2022/05/29 00:03:17;;;;;;;1.38;0.90;;;;;;;9.49;87.01;98293.47;5066217;28;20087;-72
2022/05/29 00:05:44;;;;;;;1.13;0.88;;;;;;;9.52;86.45;98296.03;5066303;28;20024;-72
2022/05/29 00:08:14;;;;;;;2.15;0.82;;;;;;;9.58;84.41;98295.88;5066246;28;20029;-72
2022/05/29 00:10:41;;;;;;;1.88;1.10;;;;;;;9.78;81.59;98293.72;5066147;28;20067;-72
2022/05/29 00:13:07;;;;;;;4.68;1.10;;;;;;;9.96;81.28;98298.56;5066187;28;20312;-72
2022/05/29 00:15:33;;;;;;;6.80;1.40;;;;;;;10.09;79.37;98300.03;5060975;28;20088;-72
2022/05/29 00:17:58;;;;;;;3.40;1.27;;;;;;;9.99;82.87;98298.50;5046067;28;20025;-72
2022/05/29 00:20:24;;;;;;;2.85;1.17;;;;;;;10.08;79.33;98293.06;5045999;28;20037;-72
2022/05/29 00:22:49;;;;;;;4.55;1.15;;;;;;;10.20;79.06;98287.53;5044859;28;20022;-72
2022/05/29 00:25:15;;;;;;;5.63;1.30;;;;;;;10.29;77.94;98287.31;5045978;28;20075;-72
2022/05/29 00:27:40;;;;;;;9.57;1.33;;;;;;;10.37;76.11;98285.34;5045949;28;20034;-72
2022/05/29 00:30:09;;;;;;;10.85;1.58;;;;;;;10.42;74.78;98278.22;5045854;28;20217;-72
2022/05/29 00:32:34;;;;;;;4.03;1.10;;;;;;;10.55;72.90;98271.75;5056843;28;20249;-72
2022/05/29 00:34:59;;;;;;;6.13;1.48;;;;;;;10.59;74.90;98270.78;5065723;28;20058;-72
2022/05/29 00:37:25;;;;;;;4.75;1.42;;;;;;;10.59;72.94;98265.50;5065706;28;20092;-72
2022/05/29 00:39:53;;;;;;;3.35;1.25;;;;;;;10.53;77.01;98268.28;5065488;28;20021;-72
2022/05/29 00:42:22;;;;;;;1.50;0.80;;;;;;;10.50;74.33;98265.75;5064446;28;20267;-72
2022/05/29 00:44:49;;;;;;;1.67;1.05;;;;;;;10.50;75.23;98263.09;5065576;28;20024;-72
2022/05/29 00:47:16;;;;;;;4.05;1.23;;;;;;;10.48;73.89;98259.66;5065543;28;20017;-72
2022/05/29 00:49:43;;;;;;;2.95;0.95;;;;;;;10.29;77.33;98247.88;5065346;28;20044;-72
2022/05/29 00:52:16;;;;;;;4.25;1.23;;;;;;;10.36;75.12;98246.81;5057671;28;20032;-72
2022/05/29 00:54:49;;;;;;;5.97;1.17;;;;;;;10.39;76.21;98246.75;5045380;28;20378;-72
2022/05/29 00:57:18;;;;;;;9.70;1.40;;;;;;;10.32;75.40;98239.91;5044810;28;20365;-72
2022/05/29 00:59:45;;;;;;;11.27;1.48;;;;;;;10.29;74.54;98246.09;5044052;28;20029;-72
2022/05/29 01:02:10;;;;;;;1.95;1.00;;;;;;;10.26;75.71;98245.31;5045424;28;20021;-72
2022/05/29 01:04:38;;;;;;;9.63;1.10;;;;;;;10.25;75.03;98248.84;5045243;28;20198;-72
2022/05/29 01:07:08;;;;;;;6.90;1.38;;;;;;;10.28;75.13;98248.75;5045177;28;20025;-72
2022/05/29 01:09:35;;;;;;;6.10;1.10;;;;;;;10.31;74.47;98232.91;5045372;28;20018;-72
2022/05/29 01:12:26;;;;;;;5.18;1.20;;;;;;;10.32;73.76;98239.91;5043898;28;20013;-72
2022/05/29 01:15:03;;;;;;;2.42;1.00;;;;;;;10.29;73.33;98234.72;5062072;28;20220;-72
2022/05/29 01:17:51;;;;;;;2.22;0.93;;;;;;;10.28;72.27;98232.97;5064915;28;20028;-72
2022/05/29 01:20:43;;;;;;;4.30;1.15;;;;;;;10.20;72.47;98233.19;5061703;28;20040;-72
2022/05/29 01:23:51;;;;;;;4.50;1.33;;;;;;;10.18;73.78;98234.09;5036833;28;20041;-72
2022/05/29 01:27:10;;;;;;;7.05;1.42;;;;;;;10.09;73.66;98236.94;5044747;28;20321;-72
2022/05/29 01:30:04;;;;;;;4.40;1.40;;;;;;;10.07;74.31;98236.13;5023498;28;20057;-72
2022/05/29 01:32:52;;;;;;;3.63;1.23;;;;;;;10.02;74.41;98225.69;5041883;28;20048;-72
2022/05/29 01:35:24;;;;;;;3.67;1.23;;;;;;;10.03;74.84;98226.56;5044616;28;20348;-72
2022/05/29 01:38:00;;;;;;;5.93;1.35;;;;;;;10.06;75.43;98222.13;5044606;28;20025;-72
2022/05/29 01:40:37;;;;;;;5.28;1.27;;;;;;;10.08;76.63;98235.22;5044471;28;20293;-72
2022/05/29 01:43:41;;;;;;;4.35;1.20;;;;;;;10.09;75.71;98231.69;5044654;28;20025;-72
2022/05/29 01:46:14;;;;;;;3.17;1.13;;;;;;;10.07;75.05;98233.50;5043278;28;20032;-72
2022/05/29 01:48:58;;;;;;;10.98;1.50;;;;;;;10.11;75.14;98232.53;5044406;28;20025;-72
2022/05/29 01:51:36;;;;;;;5.38;1.20;;;;;;;10.10;75.06;98234.28;5048484;28;20083;-72
2022/05/29 01:54:14;;;;;;;5.28;1.38;;;;;;;10.16;75.81;98233.28;5064246;28;20084;-72
2022/05/29 01:56:45;;;;;;;5.60;1.10;;;;;;;10.12;74.72;98226.34;5064214;28;20055;-72
2022/05/29 01:59:15;;;;;;;9.40;1.55;;;;;;;10.16;74.14;98223.63;5064187;28;20257;-72
2022/05/29 02:01:48;;;;;;;4.38;1.23;;;;;;;10.12;74.92;98221.09;5064108;28;20212;-72
2022/05/29 02:04:17;;;;;;;;;;;;;;;10.10;77.60;98222.91;5064552;28;20095;-72
2022/05/29 02:10:16;;;;;;;3.35;1.20;;;;;;;10.01;76.97;98217.84;5061330;28;20060;-72
2022/05/29 02:12:49;;;;;;;3.83;1.17;;;;;;;10.12;78.31;98206.19;5062025;28;20044;-72
2022/05/29 02:15:20;;;;;;;7.75;1.83;;;;;;;10.06;78.70;98200.19;5063968;28;20346;-72
2022/05/29 02:17:52;;;;;;;3.95;1.30;;;;;;;10.14;78.12;98201.78;5064007;28;20024;-72
2022/05/29 02:20:26;;;;;;;5.75;1.40;;;;;;;10.19;77.09;98202.50;5063853;28;20024;-72
2022/05/29 02:22:58;;;;;;;7.20;1.25;;;;;;;10.19;75.43;98201.66;5063887;28;20055;-72
2022/05/29 02:25:27;;;;;;;6.75;1.60;;;;;;;10.15;76.56;98195.59;5062756;28;20325;-72
2022/05/29 02:27:57;;;;;;;7.28;1.30;;;;;;;10.18;78.18;98199.91;5063864;28;20025;-72
2022/05/29 02:30:30;;;;;;;2.90;1.30;;;;;;;10.21;79.13;98205.09;5063557;28;20017;-72
2022/05/29 02:33:12;;;;;;;3.65;1.13;;;;;;;10.22;79.83;98206.84;5043847;28;20343;-72
2022/05/29 02:35:40;;;;;;;6.22;1.27;;;;;;;10.23;78.61;98213.81;5043900;28;20028;-72
2022/05/29 02:38:11;;;;;;;3.28;0.98;;;;;;;10.22;80.04;98205.06;5043778;28;20032;-72
2022/05/29 02:41:02;;;;;;;5.03;1.02;;;;;;;10.29;78.24;98203.16;5043720;28;20033;-72
2022/05/29 02:43:36;;;;;;;3.42;1.30;;;;;;;10.44;76.78;98197.50;5043729;28;20333;-72
2022/05/29 02:46:11;;;;;;;3.05;1.33;;;;;;;10.25;74.45;98188.38;5043882;28;20025;-72
2022/05/29 02:49:02;;;;;;;7.70;1.13;;;;;;;10.23;75.65;98192.78;5043843;28;20018;-72
2022/05/29 02:52:07;;;;;;;5.13;1.38;;;;;;;10.09;78.50;98189.59;5043678;28;20029;-72
2022/05/29 02:54:33;;;;;;;5.93;1.55;;;;;;;9.96;80.82;98182.88;5051236;28;20036;-72
2022/05/29 02:57:00;;;;;;;5.95;1.42;;;;;;;9.86;79.16;98186.66;5063298;28;20039;-72
2022/05/29 02:59:31;;;;;;;3.97;0.93;;;;;;;9.80;80.77;98189.41;5063440;28;20036;-72
2022/05/29 03:02:09;;;;;;;4.65;1.60;;;;;;;9.75;83.28;98191.31;5063418;28;20021;-72
2022/05/29 03:04:43;;;;;;;10.60;1.58;;;;;;;9.73;83.77;98195.72;5063303;28;20036;-72
2022/05/29 03:07:11;;;;;;;3.25;1.15;;;;;;;9.59;84.38;98182.03;5063482;28;20087;-72
2022/05/29 03:09:46;;;;;;;4.68;1.95;;;;;;;9.58;83.64;98168.03;5062309;28;20029;-72
2022/05/29 03:12:30;;;;;;;5.07;1.10;;;;;;;9.56;84.92;98171.59;5063464;28;20324;-72
2022/05/29 03:15:08;;;;;;;1.77;0.93;;;;;;;9.54;83.56;98155.00;5063458;28;20239;-72
2022/05/29 03:17:51;;;;;;;2.70;1.27;;;;;;;9.61;83.26;98159.19;5063404;28;20225;-72
2022/05/29 03:20:56;;;;;;;3.85;0.90;;;;;;;9.77;83.00;98166.72;5049285;28;20026;-72
2022/05/29 03:23:56;;;;;;;2.20;1.10;;;;;;;10.14;82.42;98166.72;5046607;28;20045;-72
2022/05/29 03:26:43;;;;;;;4.30;1.30;;;;;;;9.90;79.80;98164.66;5043096;28;20044;-72
2022/05/29 03:29:16;;;;;;;5.68;1.23;;;;;;;10.12;83.11;98173.75;5047091;28;20293;-72
2022/05/29 03:31:42;;;;;;;;;;;;;;;9.98;80.80;98173.22;5047482;28;20021;-72
2022/05/29 03:34:09;;;;;;;4.20;1.30;;;;;;;9.76;82.16;98172.00;5046989;28;19912;-72
2022/05/29 03:36:34;;;;;;;16.17;1.52;;;;;;;9.69;80.92;98168.66;5058149;28;20021;-72
2022/05/29 03:39:00;;;;;;;8.55;1.50;;;;;;;9.79;84.08;98187.69;5066738;28;20091;-72
2022/05/29 03:41:44;;;;;;;3.00;1.40;;;;;;;9.80;84.83;98187.66;5066790;28;20339;-72
2022/05/29 03:44:11;;;;;;;5.18;1.83;;;;;;;9.80;85.11;98181.53;5066724;28;20028;-72
2022/05/29 03:46:39;;;;;;;3.17;1.38;;;;;;;9.77;86.73;98192.09;5066644;28;20321;-72
2022/05/29 03:49:07;;;;;;;3.90;1.27;;;;;;;9.59;89.74;98197.81;5066488;28;20233;-72
2022/05/29 03:51:34;;;;;;;1.80;1.20;;;;;;;9.64;89.18;98201.19;5066597;28;20048;-72
2022/05/29 03:54:00;;;;;;;2.97;1.52;;;;;;;9.70;87.46;98203.66;5066523;28;20040;-72
2022/05/29 03:56:25;;;;;;;3.83;1.20;;;;;;;9.78;87.67;98209.63;5066493;28;20183;-72
2022/05/29 03:58:51;;;;;;;4.68;1.50;;;;;;;9.62;87.98;98206.47;5066317;28;20036;-72
2022/05/29 04:01:16;;;;;;;8.95;1.70;;;;;;;9.40;88.62;98202.56;5061562;28;20332;-72
2022/05/29 04:03:42;;;;;;;9.50;1.65;;;;;;;9.53;89.51;98213.69;5066283;28;20028;-72
2022/05/29 04:06:07;;;;;;;2.22;1.23;;;;;;;9.56;90.65;98208.38;5065127;28;20027;-72
2022/05/29 04:14:02;;;;;;;4.15;1.40;;;;;;;9.61;91.46;98212.63;5046213;28;20024;-72
2022/05/29 04:16:28;;;;;;;4.90;1.08;;;;;;;9.68;91.65;98213.38;5046165;28;20291;-72
2022/05/29 04:18:54;;;;;;;3.22;1.30;;;;;;;9.47;89.98;98192.81;5046046;28;20071;-72
2022/05/29 04:21:19;;;;;;;6.43;1.60;;;;;;;9.53;90.27;98188.31;5046063;28;20059;-72
2022/05/29 04:23:44;;;;;;;2.92;1.05;;;;;;;9.37;90.51;98184.28;5051680;28;20186;-72
2022/05/29 04:26:14;;;;;;;4.57;1.50;;;;;;;9.39;90.46;98178.97;5065979;28;20047;-72
2022/05/29 04:28:40;;;;;;;4.95;1.67;;;;;;;9.37;88.19;98180.78;5065908;28;20031;-72
2022/05/29 04:31:06;;;;;;;2.67;1.15;;;;;;;9.53;85.48;98176.91;5065808;28;20244;-72
2022/05/29 04:33:31;;;;;;;2.75;1.25;;;;;;;9.48;84.21;98170.88;5064888;28;20020;-72
2022/05/29 04:35:57;;;;;;;3.45;1.40;;;;;;;9.84;85.06;98167.44;5065747;28;20092;-72
2022/05/29 04:38:23;;;;;;;7.65;1.13;;;;;;;9.82;81.12;98171.84;5065741;28;20040;-72
2022/05/29 04:40:49;;;;;;;3.83;1.10;;;;;;;9.75;81.00;98165.03;5065280;28;20056;-72
2022/05/29 04:43:15;;;;;;;5.22;1.38;;;;;;;10.17;81.02;98177.16;5065629;28;20035;-72
2022/05/29 04:45:43;;;;;;;10.70;1.45;;;;;;;9.93;78.69;98182.97;5065545;28;20296;-72
2022/05/29 04:48:09;;;;;;;7.35;1.35;;;;;;;10.03;78.55;98179.25;5057177;28;20283;-72
2022/05/29 04:50:35;;;;;;;6.72;1.58;;;;;;;9.89;78.28;98181.31;5045355;28;20044;-72
2022/05/29 04:53:01;;;;;;;4.32;1.00;;;;;;;9.82;79.40;98185.00;5045447;28;20048;-72
2022/05/29 04:55:26;;;;;;;3.03;1.00;;;;;;;9.88;80.22;98187.47;5045363;28;20337;-72
2022/05/29 04:57:52;;;;;;;4.60;1.02;;;;;;;9.76;79.76;98185.13;5050726;28;20035;-72
2022/05/29 05:00:18;;;;;;;5.00;0.95;;;;;;;9.71;79.63;98181.78;5065248;28;20020;-72
2022/05/29 05:02:44;;;;;;;5.53;1.35;;;;;;;9.81;83.04;98183.28;5065225;28;20035;-72
2022/05/29 05:05:11;;;;;;;8.30;1.73;;;;;;;9.86;82.86;98192.78;5065159;28;20023;-72
2022/05/29 05:07:36;;;;;;;9.70;1.70;;;;;;;9.96;81.68;98193.41;5061876;28;20033;-72
2022/05/29 05:10:04;;;;;;;3.10;1.50;;;;;;;10.14;82.20;98188.63;5064872;28;20051;-72
2022/05/29 05:12:30;;;;;;;2.38;1.08;;;;;;;10.91;79.78;98197.09;5065019;28;20029;-72
2022/05/29 05:14:55;;;;;;;3.03;1.38;;;;;;;11.48;77.85;98200.69;5064998;28;20056;-72
2022/05/29 05:17:21;;;;;;;5.55;1.40;;;;;;;11.62;76.12;98195.91;5064187;28;20031;-72
2022/05/29 05:19:46;;;;;;;5.05;1.50;;;;;;;11.34;78.43;98194.97;5044896;28;20089;-72
2022/05/29 05:22:12;;;;;;;5.78;1.38;;;;;;;11.92;77.90;98205.50;5044966;28;20021;-72
2022/05/29 05:24:38;;;;;;;5.68;1.25;;;;;;;12.26;76.68;98205.28;5044993;28;20048;-72
2022/05/29 05:27:06;;;;;;;2.95;1.20;;;;;;;11.91;74.14;98202.91;5044797;28;20380;-72
2022/05/29 05:29:31;;;;;;;3.42;1.17;;;;;;;11.77;73.41;98200.69;5062854;28;20029;-72
2022/05/29 05:31:57;;;;;;;7.43;1.23;;;;;;;11.51;75.90;98197.97;5064633;28;20031;-72
2022/05/29 05:34:22;;;;;;;4.28;1.20;;;;;;;11.56;73.91;98201.34;5064649;28;20025;-72
2022/05/29 05:36:48;;;;;;;8.57;1.77;;;;;;;11.21;73.41;98196.25;5054970;28;20029;-72
2022/05/29 05:39:14;;;;;;;3.60;1.40;;;;;;;11.02;78.13;98203.78;5044592;28;20237;-72
2022/05/29 05:41:39;;;;;;;3.17;1.08;;;;;;;11.20;76.14;98207.66;5044508;28;20021;-72
2022/05/29 05:44:05;;;;;;;4.28;1.20;;;;;;;11.23;76.92;98210.22;5044343;28;20221;-72
2022/05/29 05:46:31;;;;;;;5.28;1.33;;;;;;;11.57;78.66;98216.22;5051063;28;20029;-72
2022/05/29 05:48:57;;;;;;;5.80;1.27;;;;;;;11.62;77.66;98216.13;5064218;28;20084;-72
2022/05/29 05:51:23;;;;;;;5.95;1.23;;;;;;;11.63;75.92;98212.56;5064356;28;20074;-72
2022/05/29 05:53:49;;;;;;;5.60;1.35;;;;;;;11.72;75.41;98218.44;5064275;28;20124;-72
2022/05/29 05:56:16;;;;;;;3.30;1.55;;;;;;;11.54;77.01;98216.31;5046082;28;20045;-72
2022/05/29 05:58:43;;;;;;;5.38;1.45;;;;;;;11.61;75.83;98209.94;5044358;28;20059;-72
2022/05/29 06:01:13;;;;;;;6.50;1.55;;;;;;;11.54;74.97;98208.41;5044227;28;20079;-72
2022/05/29 06:03:39;;;;;;;4.40;1.50;;;;;;;11.18;72.69;98198.97;5044250;28;20092;-72
2022/05/29 06:06:05;;;;;;;8.38;1.38;;;;;;;11.17;74.25;98201.63;5060427;28;20037;-72
2022/05/29 06:08:31;;;;;;;5.78;1.10;;;;;;;11.41;77.52;98204.41;5064032;28;20024;-72
2022/05/29 06:10:56;;;;;;;8.35;1.40;;;;;;;11.15;75.00;98201.69;5064038;28;20020;-72
2022/05/29 06:13:22;;;;;;;3.33;0.90;;;;;;;11.28;76.73;98204.81;5056336;28;20206;-72
2022/05/29 06:15:47;;;;;;;10.20;1.30;;;;;;;11.13;75.03;98205.28;5044053;28;20032;-72
2022/05/29 06:18:15;;;;;;;3.38;1.27;;;;;;;11.06;75.30;98196.66;5062850;28;20087;-72
2022/05/29 06:20:41;;;;;;;6.43;1.58;;;;;;;11.36;77.24;98203.69;5063910;28;20221;-72
2022/05/29 06:23:07;;;;;;;6.43;1.73;;;;;;;11.76;76.65;98209.53;5058506;28;20029;-72
2022/05/29 06:25:32;;;;;;;5.80;1.50;;;;;;;11.96;74.70;98211.56;5043954;28;20379;-72
2022/05/29 06:27:58;;;;;;;8.85;1.50;;;;;;;11.93;74.08;98215.13;5043912;28;20063;-72
2022/05/29 06:30:23;;;;;;;5.35;1.15;;;;;;;11.92;73.75;98210.78;5043890;28;20018;-72
2022/05/29 06:32:49;;;;;;;7.25;1.42;;;;;;;12.03;74.00;98218.38;5046098;28;20036;-72
2022/05/29 06:35:15;;;;;;;7.03;1.20;;;;;;;11.92;73.82;98212.53;5063759;28;20024;-72
2022/05/29 06:37:42;;;;;;;5.78;1.25;;;;;;;11.88;74.53;98210.91;5063735;28;20193;-72
2022/05/29 06:40:10;;;;;;;3.78;1.40;;;;;;;11.93;74.42;98212.50;5063629;28;20167;-72
2022/05/29 06:42:35;;;;;;;5.93;1.10;;;;;;;11.61;73.53;98209.94;5063122;28;20025;-72
2022/05/29 06:45:02;;;;;;;3.50;1.08;;;;;;;11.67;74.85;98208.97;5043754;28;20025;-72
2022/05/29 06:47:28;;;;;;;3.40;1.60;;;;;;;11.78;74.66;98213.00;5046860;28;20029;-72
2022/05/29 06:49:53;;;;;;;5.40;1.42;;;;;;;11.82;74.95;98217.25;5060742;28;20040;-72
2022/05/29 06:52:19;;;;;;;8.60;1.23;;;;;;;11.50;73.89;98221.72;5062493;28;20217;-72
2022/05/29 06:54:45;;;;;;;2.45;1.27;;;;;;;11.39;75.93;98219.41;5062861;28;20029;-72
2022/05/29 06:57:12;;;;;;;6.18;1.58;;;;;;;11.46;76.96;98225.38;5067501;28;20029;-72
2022/05/29 07:07:58;;;;;;;2.35;1.00;;;;;;;10.57;82.32;98215.56;5046535;28;20023;-72
2022/05/29 07:10:24;;;;;;;3.72;1.10;;;;;;;10.52;82.27;98206.06;5046484;28;20064;-72
2022/05/29 07:12:50;;;;;;;6.50;1.52;;;;;;;10.52;84.08;98211.31;5061699;28;20024;-72
2022/05/29 07:15:17;;;;;;;7.68;1.42;;;;;;;10.34;81.92;98209.16;5066369;28;20028;-72
2022/05/29 07:17:43;;;;;;;7.38;1.45;;;;;;;10.24;84.13;98210.28;5065940;28;20206;-72
2022/05/29 07:20:09;;;;;;;2.50;1.23;;;;;;;10.02;83.84;98204.66;5066209;28;20024;-72
2022/05/29 07:22:35;;;;;;;9.23;2.45;;;;;;;10.11;85.19;98214.13;5052734;28;20032;-72
2022/05/29 07:25:02;;;;;;;6.07;1.60;;;;;;;10.08;85.54;98214.19;5046208;28;20029;-72
2022/05/29 07:27:27;;;;;;;7.65;1.70;;;;;;;10.12;85.75;98210.56;5046115;28;20025;-72
2022/05/29 07:29:53;;;;;;;5.18;1.30;;;;;;;10.26;87.04;98213.75;5045727;28;20313;-72
2022/05/29 07:32:20;;;;;;;8.18;1.55;;;;;;;10.40;86.66;98211.63;5056612;28;20092;-71
2022/05/29 07:34:46;;;;;;;8.35;1.52;;;;;;;10.40;87.56;98211.63;5065975;28;20029;-71
2022/05/29 07:37:15;;;;;;;6.28;1.30;;;;;;;10.38;87.83;98216.09;5065932;28;20028;-72
2022/05/29 07:39:47;;;;;;;6.18;1.70;;;;;;;10.49;87.65;98214.03;5063103;28;20033;-71
2022/05/29 07:44:57;;;;;;;3.25;1.20;;;;;;;11.05;85.72;98215.16;5082206;28;20024;-72
2022/05/29 07:47:27;;;;;;;10.23;1.50;;;;;;;11.01;84.72;98206.44;5066804;28;20088;-72
2022/05/29 07:49:54;;;;;;;6.18;1.75;;;;;;;10.82;85.27;98210.50;5062571;28;20029;-72
2022/05/29 07:52:20;;;;;;;4.57;1.25;;;;;;;10.70;86.11;98221.38;5044373;28;20136;-71
2022/05/29 07:54:45;;;;;;;4.95;1.52;;;;;;;10.63;87.22;98215.41;5045301;28;20029;-71
2022/05/29 07:57:11;;;;;;;6.80;1.58;;;;;;;10.80;88.14;98223.69;5045293;28;20317;-72
2022/05/29 07:59:36;;;;;;;6.13;1.45;;;;;;;10.99;88.86;98218.81;5070594;28;20020;-72
2022/05/29 08:02:02;;;;;;;5.88;1.73;;;;;;;11.13;87.36;98232.47;5045333;28;20048;-73
2022/05/29 08:04:27;;;;;;;2.75;1.20;;;;;;;11.28;87.88;98226.75;5045328;28;20029;-73
2022/05/29 08:06:53;;;;;;;5.05;1.50;;;;;;;11.53;88.80;98233.06;5043892;28;20194;-73
2022/05/29 08:09:19;;;;;;;10.10;2.13;;;;;;;11.85;85.86;98235.63;5057326;28;20045;-73
2022/05/29 08:11:44;;;;;;;4.45;1.50;;;;;;;11.74;83.52;98231.59;5065186;28;20025;-73
2022/05/29 08:14:10;;;;;;;9.15;1.65;;;;;;;12.05;85.39;98232.34;5065110;28;20024;-73
2022/05/29 08:16:36;;;;;;;8.32;1.48;;;;;;;12.23;84.60;98237.91;5078413;28;20024;-73
2022/05/29 08:19:03;;;;;;;3.35;1.20;;;;;;;12.22;81.70;98244.09;5073849;28;20031;-74
2022/05/29 08:21:28;;;;;;;14.07;2.78;;;;;;;12.23;80.99;98232.66;5064532;28;20074;-74
2022/05/29 08:32:06;;;;;;;7.30;1.75;;;;;;;12.87;76.86;98221.66;5044854;28;20051;-73
2022/05/29 08:34:32;;;;;;;9.60;2.20;;;;;;;12.52;75.00;98229.91;5044379;28;20225;-73
2022/05/29 08:36:58;;;;;;;2.83;1.20;;;;;;;12.91;76.24;98223.25;5044685;28;20022;-73
2022/05/29 08:39:24;;;;;;;6.55;1.40;;;;;;;13.41;76.60;98229.41;5056224;28;20029;-73
2022/05/29 08:41:53;;;;;;;4.82;1.50;;;;;;;13.68;74.94;98232.78;5064099;28;20119;-73
2022/05/29 08:44:36;;;;;;;5.30;1.40;;;;;;;14.03;72.87;98227.88;5047291;28;20032;-73
2022/05/29 08:47:04;;;;;;;3.47;1.45;;;;;;;14.29;71.84;98229.50;5063857;28;20296;-73
2022/05/29 08:49:38;;;;;;;5.85;1.50;;;;;;;14.66;71.76;98221.78;5066381;28;20388;-74
2022/05/29 08:52:32;;;;;;;7.35;1.50;;;;;;;14.98;69.54;98222.13;5084399;28;20027;-74
2022/05/29 08:55:10;;;;;;;8.50;1.73;;;;;;;16.13;61.70;98220.34;5084346;28;20024;-74
2022/05/29 08:58:06;;;;;;;4.78;1.30;;;;;;;16.93;59.51;98224.34;5084302;28;20069;-74
2022/05/29 09:01:04;;;;;;;8.52;1.63;;;;;;;16.08;60.86;98222.38;5043816;28;20071;-74
2022/05/29 09:03:51;;;;;;;4.53;1.55;;;;;;;15.82;62.28;98220.06;5042962;28;20044;-74
2022/05/29 09:06:47;;;;;;;2.60;1.52;;;;;;;16.64;65.85;98223.13;5044176;28;20144;-74
2022/05/29 09:09:25;;;;;;;5.13;1.30;;;;;;;17.84;60.02;98220.38;5052712;28;20558;-74
2022/05/29 09:11:55;;;;;;;4.68;1.45;;;;;;;18.18;56.38;98206.88;5064069;28;20025;-74
2022/05/29 09:14:34;;;;;;;3.50;1.15;;;;;;;19.29;58.34;98215.47;5050550;28;20029;-74
2022/05/29 09:17:06;;;;;;;3.38;1.45;;;;;;;19.44;54.55;98218.06;5044683;28;20028;-74
2022/05/29 09:19:47;;;;;;;;;;;;;;;20.23;53.25;98225.47;5043973;28;20108;-75
2022/05/29 09:22:22;;;;;;;4.55;1.23;;;;;;;18.64;55.50;98200.69;5042881;28;19940;-75
2022/05/29 09:24:55;;;;;;;3.92;1.27;;;;;;;18.08;58.59;98200.34;5043932;28;20268;-74
2022/05/29 09:27:22;;;;;;;5.63;1.65;;;;;;;17.23;56.02;98194.34;5049567;28;20336;-74
2022/05/29 09:29:47;;;;;;;4.03;1.58;;;;;;;16.27;60.56;98186.03;5063828;28;20426;-74
2022/05/29 09:32:19;;;;;;;4.78;1.50;;;;;;;15.84;61.98;98196.09;5063743;28;20025;-74
2022/05/29 09:34:56;;;;;;;3.25;1.30;;;;;;;14.70;60.83;98187.16;5063737;28;20024;-74
2022/05/29 09:37:50;;;;;;;7.40;1.73;;;;;;;15.68;59.62;98205.72;5056115;28;20209;-74
2022/05/29 09:40:24;;;;;;;6.20;1.60;;;;;;;17.07;59.50;98200.56;5043215;28;20363;-74
2022/05/29 09:42:53;;;;;;;6.43;1.55;;;;;;;18.02;54.50;98214.00;5043645;28;20025;-74
2022/05/29 09:45:33;;;;;;;2.83;1.25;;;;;;;18.34;51.46;98197.06;5043626;28;20225;-74
2022/05/29 09:50:54;;;;;;;7.05;1.25;;;;;;;16.97;56.89;98197.53;5043380;28;20272;-74
2022/05/29 09:53:25;;;;;;;10.85;1.85;;;;;;;17.76;56.07;98195.97;5043064;28;20022;-74
2022/05/29 09:55:55;;;;;;;4.55;1.33;;;;;;;17.86;56.67;98197.16;5043453;28;20026;-74
2022/05/29 09:58:26;;;;;;;8.02;1.60;;;;;;;17.49;58.02;98198.31;5043337;28;20027;-74
2022/05/29 10:00:55;;;;;;;7.55;1.35;;;;;;;17.14;57.90;98197.50;5043247;28;20025;-74
2022/05/29 10:03:55;;;;;;;5.57;1.63;;;;;;;16.62;58.74;98182.53;5043211;28;20041;-74
2022/05/29 10:06:42;;;;;;;4.68;1.23;;;;;;;16.52;58.19;98186.53;5042734;28;20088;-74
2022/05/29 10:09:16;;;;;;;4.78;1.05;;;;;;;15.86;57.74;98178.34;5043195;28;20030;-73
2022/05/29 10:11:45;;;;;;;5.93;1.20;;;;;;;16.10;57.34;98187.78;5043228;28;20217;-74
2022/05/29 10:14:43;;;;;;;2.08;0.95;;;;;;;16.53;56.75;98182.97;5043139;28;20033;-74
2022/05/29 10:17:33;;;;;;;3.88;1.20;;;;;;;17.43;57.93;98192.47;5043901;28;20112;-74
2022/05/29 10:19:59;;;;;;;6.68;2.80;;;;;;;18.10;54.20;98179.84;5041459;28;20086;-75
2022/05/29 10:22:32;;;;;;;83.78;40.35;;;;;;;18.62;52.56;98184.78;5043071;28;20329;-75
2022/05/29 10:24:59;;;;;;;8.70;2.13;;;;;;;19.15;49.95;98178.91;5043025;28;20093;-75
2022/05/29 10:27:32;;;;;;;5.32;1.73;;;;;;;19.44;50.98;98179.81;5046107;28;20019;-74
2022/05/29 10:30:05;;;;;;;9.30;1.40;;;;;;;19.57;45.74;98175.41;5062069;28;20377;-74
2022/05/29 10:32:34;;;;;;;3.47;1.38;;;;;;;20.13;49.04;98170.91;5062511;28;20025;-74
2022/05/29 10:35:25;;;;;;;6.10;1.70;;;;;;;19.89;46.48;98167.09;5062871;28;20021;-75
2022/05/29 10:37:52;;;;;;;7.72;1.80;;;;;;;20.52;47.97;98162.06;5055976;28;20029;-75
2022/05/29 10:40:25;;;;;;;5.50;2.15;;;;;;;20.45;45.71;98145.59;5042817;28;20029;-75
2022/05/29 10:42:55;;;;;;;10.35;4.78;;;;;;;20.27;46.10;98138.78;5042851;28;20025;-75
2022/05/29 10:45:26;;;;;;;2.83;1.20;;;;;;;20.03;44.10;98148.38;5042388;28;20025;-75
2022/05/29 10:48:09;;;;;;;6.03;1.27;;;;;;;18.14;46.93;98138.75;5048604;28;20067;-74
2022/05/29 10:50:58;;;;;;;3.17;1.15;;;;;;;18.64;46.53;98137.53;5062364;28;20045;-73
2022/05/29 10:53:36;;;;;;;1.52;0.80;;;;;;;18.69;48.71;98138.13;5062716;28;20351;-74
2022/05/29 10:56:02;;;;;;;3.30;0.95;;;;;;;18.02;45.12;98135.00;5047299;28;20049;-74
2022/05/29 10:58:46;;;;;;;6.03;3.90;;;;;;;17.43;48.07;98126.81;5070655;28;20041;-73
2022/05/29 11:04:19;;;;;;;2.17;0.85;;;;;;;16.57;48.40;98123.44;5044759;28;20036;-73
2022/05/29 11:07:03;;;;;;;5.13;1.35;;;;;;;16.91;46.97;98115.44;5065031;28;20078;-73
2022/05/29 11:09:46;;;;;;;7.40;2.10;;;;;;;18.80;46.69;98124.19;5043640;28;20028;-73
2022/05/29 11:12:40;;;;;;;4.10;1.10;;;;;;;18.85;42.89;98122.06;5042200;28;20053;-74
2022/05/29 11:15:09;;;;;;;5.65;1.00;;;;;;;19.21;42.61;98115.34;5042609;28;20025;-74
2022/05/29 11:17:57;;;;;;;2.63;1.00;;;;;;;19.84;47.01;98125.63;5048890;28;20035;-74
2022/05/29 11:20:25;;;;;;;3.83;1.10;;;;;;;20.26;42.71;98110.38;5056818;28;20044;-74
2022/05/29 11:23:00;;;;;;;4.78;1.15;;;;;;;18.82;43.99;98101.78;5057835;28;20032;-74
2022/05/29 11:25:43;;;;;;;5.93;1.20;;;;;;;18.50;46.82;98099.31;5049523;28;20083;-74
2022/05/29 11:28:36;;;;;;;2.63;1.10;;;;;;;18.34;44.23;98098.47;5063640;28;20088;-74
2022/05/29 11:31:22;;;;;;;1.48;0.85;;;;;;;17.86;44.88;98090.66;5062319;28;20335;-74
2022/05/29 11:34:26;;;;;;;3.83;0.95;;;;;;;18.31;44.76;98098.66;5042378;28;20036;-74
2022/05/29 11:37:18;;;;;;;5.50;1.90;;;;;;;18.61;41.21;98087.06;5042337;28;20083;-74
2022/05/29 11:39:52;;;;;;;;;;;;;;;18.63;43.43;98077.19;5042858;28;20318;-74
2022/05/29 11:42:36;;;;;;;3.60;1.00;;;;;;;18.13;43.74;98071.28;5047773;28;19909;-73
2022/05/29 11:45:16;;;;;;;3.33;0.93;;;;;;;18.17;45.94;98079.97;5046619;28;20027;-73
2022/05/29 11:54:04;;;;;;;3.28;1.05;;;;;;;17.50;43.69;98068.78;5045734;28;20266;-73
2022/05/29 11:56:37;;;;;;;2.55;0.88;;;;;;;16.63;42.65;98067.31;5046770;28;20025;-73
2022/05/29 11:59:26;;;;;;;3.58;1.10;;;;;;;16.17;44.90;98062.59;5045234;28;20031;-74
2022/05/29 12:02:18;;;;;;;2.13;0.77;;;;;;;16.24;46.48;98072.00;5045489;28;20096;-73
2022/05/29 12:05:11;;;;;;;2.80;1.20;;;;;;;16.84;45.46;98070.63;5045497;28;20026;-73
2022/05/29 12:08:16;;;;;;;4.82;1.38;;;;;;;17.10;46.83;98062.13;5045276;28;20139;-73
2022/05/29 12:11:02;;;;;;;1.02;0.80;;;;;;;17.28;45.74;98055.81;5045403;28;20020;-73
2022/05/29 12:13:36;;;;;;;4.40;1.10;;;;;;;17.59;47.42;98054.97;5046608;28;20104;-73
2022/05/29 12:16:06;;;;;;;4.20;1.13;;;;;;;17.72;43.79;98048.03;5045584;28;20083;-73
2022/05/29 12:18:41;;;;;;;5.38;1.30;;;;;;;17.39;44.20;98058.72;5046303;28;20329;-73
2022/05/29 12:21:07;;;;;;;5.07;1.20;;;;;;;17.61;42.30;98056.59;5046051;28;20048;-73
2022/05/29 12:23:41;;;;;;;3.78;1.02;;;;;;;17.76;43.02;98046.88;5058071;28;20033;-73
2022/05/29 12:26:18;;;;;;;2.00;0.93;;;;;;;17.45;46.25;98057.53;5066021;28;20027;-73
2022/05/29 12:29:02;;;;;;;2.40;1.40;;;;;;;17.20;46.56;98047.38;5065968;28;20064;-73
2022/05/29 12:31:39;;;;;;;1.85;1.00;;;;;;;17.02;46.92;98062.53;5065858;28;20028;-73
2022/05/29 12:34:08;;;;;;;4.25;1.13;;;;;;;16.84;45.50;98055.53;5065878;28;20382;-73
2022/05/29 12:36:36;;;;;;;6.95;1.60;;;;;;;16.93;46.92;98055.03;5064648;28;20021;-73
2022/05/29 12:39:09;;;;;;;7.65;1.63;;;;;;;17.05;49.43;98065.03;5065729;28;20027;-73
2022/05/29 12:41:50;;;;;;;1.77;1.15;;;;;;;16.92;46.26;98061.31;5065713;28;20025;-73